CDV4 weather

CLOSED Canadian Skydive Centre Airport
Didsbury, Alberta, Canada

Public forecast

Using degrees Celsius for public forecast. Weather courtesy of forecast.io.

METAR (pilot weather report)

Closest report is Calgary International Airport, 31.3 nm (58.0 km) S. Retrieved 2019/07/18 22:00 UTC (37 minutes ago):

CYYC 182200Z 29017G22KT 14SM SCT065CB BKN085 BKN200 13/06 A2970 RMK CB4AC3CI1 CI TR VIS S-W 40 CB E-S NOW MOVG SLOLY SE / NEXT CB DIST NW MOVG SLOLY E SLP061 DENSITY ALT 4500FT

TAF (pilot weather forecast)

Closest forecast is Calgary International Airport, 31.3 nm (58.0 km) S. Retrieved 2019/07/18 21:39 UTC (58 minutes ago):

TAF CYYC 182038Z 1821/1918 35015G25KT P6SM SCT040 SCT080 BKN240 TEMPO 1821/1901 VRB20G30KT 4SM TSRA BKN040CB FM190100 32012G22KT P6SM SCT040 SCT080 SCT240 FM190400 28008KT P6SM SCT100 BKN240 RMK NXT FCST BY 190000Z